Time;durP1;ratioP1;P1;durP2;ratioP2;P2;SDS_P1;SDS_P2;PMS_P1;PMS_P2;Temp;Humidity;BMP_temperature;BMP_pressure;BME280_temperature;BME280_humidity;BME280_pressure;Samples;Min_cycle;Max_cycle;Signal;HPM_P1;HPM_P2
2023/07/05 00:01:50;;;;;;;;;;;;;;;;;;5133066;27;932;-67
2023/07/05 00:04:15;;;;;;;;;;;;;;;;;;5133160;27;1910;-68
2023/07/05 00:06:40;;;;;;;;;;;;;;;;;;5133515;28;884;-67
2023/07/05 00:09:06;;;;;;;;;;;;;;;;;;5133444;27;814;-68
2023/07/05 00:11:31;;;;;;;;;;;;;;;;;;5139788;27;928;-68
2023/07/05 00:13:57;;;;;;;;;;;;;;;;;;5139748;27;1064;-67
2023/07/05 00:16:22;;;;;;;;;;;;;;;;;;5122276;27;916;-68
2023/07/05 00:18:48;;;;;;;;;;;;;;;;;;5139949;27;956;-67
2023/07/05 00:21:13;;;;;;;;;;;;;;;;;;5121373;27;855;-67
2023/07/05 00:23:39;;;;;;;;;;;;;;;;;;5140011;27;1910;-67
2023/07/05 00:26:06;;;;;;;;;;;;;;;;;;5139504;27;909;-67
2023/07/05 00:28:34;;;;;;;;;;;;;;;;;;5140066;27;908;-67
2023/07/05 00:31:00;;;;;;;;;;;;;;;;;;5139962;27;944;-67
2023/07/05 00:33:25;;;;;;;;;;;;;;;;;;5140115;27;864;-67
2023/07/05 00:35:52;;;;;;;;;;;;;;;;;;5139122;27;912;-67
2023/07/05 00:38:17;;;;;;;;;;;;;;;;;;5139951;27;1254;-67
2023/07/05 00:40:43;;;;;;;;;;;;;;;;;;5140340;27;908;-67
2023/07/05 00:43:08;;;;;;;;;;;;;;;;;;5140071;27;1952;-67
2023/07/05 00:45:41;;;;;;;;;;;;;;;;;;5121638;27;853;-67
2023/07/05 00:48:10;;;;;;;;;;;;;;;;;;5139450;27;877;-68
2023/07/05 00:50:37;;;;;;;;;;;;;;;;;;5121508;27;917;-67
2023/07/05 00:53:03;;;;;;;;;;;;;;;;;;5139328;27;963;-67
2023/07/05 00:55:29;;;;;;;;;;;;;;;;;;5140425;27;869;-68
2023/07/05 00:57:55;;;;;;;;;;;;;;;;;;5139567;27;932;-68
2023/07/05 01:00:21;;;;;;;;;;;;;;;;;;5140350;27;1038;-67
2023/07/05 01:02:49;;;;;;;;;;;;;;;;;;5139534;27;1927;-68
2023/07/05 01:05:15;;;;;;;;;;;;;;;;;;5140054;27;837;-67
2023/07/05 01:07:40;;;;;;;;;;;;;;;;;;5139918;27;928;-67
2023/07/05 01:10:07;;;;;;;;;;;;;;;;;;5120940;27;897;-67
2023/07/05 01:12:37;;;;;;;;;;;;;;;;;;5139771;27;837;-67
2023/07/05 01:15:06;;;;;;;;;;;;;;;;;;5139969;27;1301;-67
2023/07/05 01:17:40;;;;;;;;;;;;;;;;;;5140138;27;1132;-67
2023/07/05 01:20:09;;;;;;;;;;;;;;;;;;5139485;27;837;-67
2023/07/05 01:22:53;;;;;;;;;;;;;;;;;;5135894;27;1918;-67
2023/07/05 01:25:21;;;;;;;;;;;;;;;;;;5117924;27;929;-67
2023/07/05 01:28:03;;;;;;;;;;;;;;;;;;5136475;27;1059;-67
2023/07/05 01:30:54;;;;;;;;;;;;;;;;;;5136821;27;858;-67
2023/07/05 01:33:21;;;;;;;;;;;;;;;;;;5135637;27;948;-68
2023/07/05 01:35:52;;;;;;;;;;;;;;;;;;5135911;27;881;-67
2023/07/05 01:38:17;;;;;;;;;;;;;;;;;;5135872;27;964;-67
2023/07/05 01:40:43;;;;;;;;;;;;;;;;;;5136015;27;978;-67
2023/07/05 01:43:11;;;;;;;;;;;;;;;;;;5117540;27;1901;-66
2023/07/05 01:45:54;;;;;;;;;;;;;;;;;;5117711;27;1332;-67
2023/07/05 01:48:22;;;;;;;;;;;;;;;;;;5136385;27;865;-67
2023/07/05 01:51:11;;;;;;;;;;;;;;;;;;5135755;27;885;-67
2023/07/05 01:53:45;;;;;;;;;;;;;;;;;;5124987;27;1132;-67
2023/07/05 01:56:17;;;;;;;;;;;;;;;;;;5135748;27;920;-67
2023/07/05 01:58:44;;;;;;;;;;;;;;;;;;5135825;27;1008;-67
2023/07/05 02:01:11;;;;;;;;;;;;;;;;;;5135001;27;945;-67
2023/07/05 02:03:37;;;;;;;;;;;;;;;;;;5135340;27;1906;-67
2023/07/05 02:06:04;;;;;;;;;;;;;;;;;;5134959;27;902;-67
2023/07/05 02:08:35;;;;;;;;;;;;;;;;;;5135142;27;838;-67
2023/07/05 02:11:02;;;;;;;;;;;;;;;;;;5135259;27;1027;-67
2023/07/05 02:13:28;;;;;;;;;;;;;;;;;;5135485;27;868;-67
2023/07/05 02:15:53;;;;;;;;;;;;;;;;;;5135359;27;1411;-67
2023/07/05 02:18:18;;;;;;;;;;;;;;;;;;5135436;27;848;-67
2023/07/05 02:20:44;;;;;;;;;;;;;;;;;;5116073;27;1276;-67
2023/07/05 02:23:09;;;;;;;;;;;;;;;;;;5121484;27;1960;-67
2023/07/05 02:25:35;;;;;;;;;;;;;;;;;;5110886;28;1288;-67
2023/07/05 02:28:01;;;;;;;;;;;;;;;;;;5113783;28;1234;-67
2023/07/05 02:30:26;;;;;;;;;;;;;;;;;;5114611;28;936;-67
2023/07/05 02:32:51;;;;;;;;;;;;;;;;;;5114123;28;873;-67
2023/07/05 02:35:17;;;;;;;;;;;;;;;;;;5114293;28;917;-67
2023/07/05 02:37:42;;;;;;;;;;;;;;;;;;5114741;28;992;-68
2023/07/05 02:40:07;;;;;;;;;;;;;;;;;;5114190;28;897;-67
2023/07/05 02:42:33;;;;;;;;;;;;;;;;;;5114649;28;940;-67
2023/07/05 02:44:58;;;;;;;;;;;;;;;;;;5114190;28;1894;-68
2023/07/05 02:47:23;;;;;;;;;;;;;;;;;;5114617;28;980;-67
2023/07/05 02:49:49;;;;;;;;;;;;;;;;;;5114256;28;933;-67
2023/07/05 02:52:14;;;;;;;;;;;;;;;;;;5113840;28;826;-66
2023/07/05 02:54:39;;;;;;;;;;;;;;;;;;5113832;28;1011;-67
2023/07/05 02:57:05;;;;;;;;;;;;;;;;;;5113446;28;953;-67
2023/07/05 02:59:30;;;;;;;;;;;;;;;;;;5113953;28;838;-67
2023/07/05 03:01:56;;;;;;;;;;;;;;;;;;5113545;28;954;-67
2023/07/05 03:04:21;;;;;;;;;;;;;;;;;;5113897;28;1964;-67
2023/07/05 03:06:47;;;;;;;;;;;;;;;;;;5113183;28;963;-67
2023/07/05 03:09:12;;;;;;;;;;;;;;;;;;5113035;28;924;-68
2023/07/05 03:11:37;;;;;;;;;;;;;;;;;;5113377;28;936;-67
2023/07/05 03:14:03;;;;;;;;;;;;;;;;;;5116654;27;1175;-67
2023/07/05 03:16:28;;;;;;;;;;;;;;;;;;5134205;27;877;-68
2023/07/05 03:18:54;;;;;;;;;;;;;;;;;;5133981;27;854;-67
2023/07/05 03:21:19;;;;;;;;;;;;;;;;;;5133608;27;996;-67
2023/07/05 03:23:44;;;;;;;;;;;;;;;;;;5133647;27;1973;-66
2023/07/05 03:26:10;;;;;;;;;;;;;;;;;;5133455;27;991;-68
2023/07/05 03:28:36;;;;;;;;;;;;;;;;;;5134009;27;1191;-67
2023/07/05 03:31:06;;;;;;;;;;;;;;;;;;5134039;27;857;-67
2023/07/05 03:33:32;;;;;;;;;;;;;;;;;;5115108;27;933;-66
2023/07/05 03:35:59;;;;;;;;;;;;;;;;;;5133905;27;916;-67
2023/07/05 03:38:25;;;;;;;;;;;;;;;;;;5133805;27;937;-67
2023/07/05 03:41:04;;;;;;;;;;;;;;;;;;5134134;27;1101;-67
2023/07/05 03:43:32;;;;;;;;;;;;;;;;;;5133453;27;1969;-66
2023/07/05 03:45:58;;;;;;;;;;;;;;;;;;5133090;27;845;-67
2023/07/05 03:48:23;;;;;;;;;;;;;;;;;;5134284;27;917;-67
2023/07/05 03:50:49;;;;;;;;;;;;;;;;;;5133701;27;916;-67
2023/07/05 03:53:14;;;;;;;;;;;;;;;;;;5133382;27;991;-67
2023/07/05 03:55:39;;;;;;;;;;;;;;;;;;5133827;27;1229;-67
2023/07/05 03:58:05;;;;;;;;;;;;;;;;;;5133380;27;937;-67
2023/07/05 04:00:30;;;;;;;;;;;;;;;;;;5133754;27;1019;-67
2023/07/05 04:02:55;;;;;;;;;;;;;;;;;;5133103;27;1905;-67
2023/07/05 04:05:20;;;;;;;;;;;;;;;;;;5133013;27;975;-67
2023/07/05 04:07:46;;;;;;;;;;;;;;;;;;5133185;28;912;-67
2023/07/05 04:10:11;;;;;;;;;;;;;;;;;;5132989;28;849;-68
2023/07/05 04:12:37;;;;;;;;;;;;;;;;;;5134111;28;864;-67
2023/07/05 04:15:02;;;;;;;;;;;;;;;;;;5132986;28;1063;-67
2023/07/05 04:17:31;;;;;;;;;;;;;;;;;;5115025;28;1541;-67
2023/07/05 04:19:56;;;;;;;;;;;;;;;;;;5133498;28;1031;-67
2023/07/05 04:22:21;;;;;;;;;;;;;;;;;;5133404;28;935;-67
2023/07/05 04:24:46;;;;;;;;;;;;;;;;;;5133269;28;1977;-67
2023/07/05 04:27:12;;;;;;;;;;;;;;;;;;5133072;28;971;-67
2023/07/05 04:29:37;;;;;;;;;;;;;;;;;;5133275;28;920;-67
2023/07/05 04:32:03;;;;;;;;;;;;;;;;;;5133191;28;849;-67
2023/07/05 04:34:28;;;;;;;;;;;;;;;;;;5132604;28;1314;-66
2023/07/05 04:36:53;;;;;;;;;;;;;;;;;;5133360;28;987;-67
2023/07/05 04:39:18;;;;;;;;;;;;;;;;;;5133239;28;897;-66
2023/07/05 04:41:43;;;;;;;;;;;;;;;;;;5114589;28;944;-66
2023/07/05 04:44:10;;;;;;;;;;;;;;;;;;5132668;28;1891;-67
2023/07/05 04:46:35;;;;;;;;;;;;;;;;;;5132953;28;983;-66
2023/07/05 04:49:00;;;;;;;;;;;;;;;;;;5132943;28;873;-66
2023/07/05 04:51:25;;;;;;;;;;;;;;;;;;5133001;28;1078;-66
2023/07/05 04:53:51;;;;;;;;;;;;;;;;;;5133101;28;826;-66
2023/07/05 04:56:16;;;;;;;;;;;;;;;;;;5115477;27;926;-67
2023/07/05 04:58:41;;;;;;;;;;;;;;;;;;5101262;27;1592;-67
2023/07/05 05:01:07;;;;;;;;;;;;;;;;;;5118345;27;956;-67
2023/07/05 05:03:33;;;;;;;;;;;;;;;;;;5117970;27;1897;-67
2023/07/05 05:05:58;;;;;;;;;;;;;;;;;;5134316;27;1187;-67
2023/07/05 05:08:24;;;;;;;;;;;;;;;;;;5133859;27;1198;-67
2023/07/05 05:10:53;;;;;;;;;;;;;;;;;;5132175;27;1132;-67
2023/07/05 05:13:18;;;;;;;;;;;;;;;;;;5115885;28;956;-67
2023/07/05 05:15:43;;;;;;;;;;;;;;;;;;5133891;27;1159;-67
2023/07/05 05:18:09;;;;;;;;;;;;;;;;;;5136716;27;920;-66
2023/07/05 05:20:37;;;;;;;;;;;;;;;;;;5117958;27;869;-67
2023/07/05 05:23:02;;;;;;;;;;;;;;;;;;5136692;27;1964;-67
2023/07/05 05:25:27;;;;;;;;;;;;;;;;;;5136361;27;955;-67
2023/07/05 05:27:53;;;;;;;;;;;;;;;;;;5136850;27;921;-67
2023/07/05 05:30:18;;;;;;;;;;;;;;;;;;5136844;27;876;-67
2023/07/05 05:32:44;;;;;;;;;;;;;;;;;;5136501;27;999;-67
2023/07/05 05:35:10;;;;;;;;;;;;;;;;;;5136175;27;916;-66
2023/07/05 05:37:35;;;;;;;;;;;;;;;;;;5134775;27;936;-66
2023/07/05 05:40:01;;;;;;;;;;;;;;;;;;5135726;27;949;-66
2023/07/05 05:42:26;;;;;;;;;;;;;;;;;;5136117;27;1067;-67
2023/07/05 05:44:51;;;;;;;;;;;;;;;;;;5136146;27;1953;-67
2023/07/05 05:47:17;;;;;;;;;;;;;;;;;;5136273;27;848;-67
2023/07/05 05:49:42;;;;;;;;;;;;;;;;;;5136256;27;880;-67
2023/07/05 05:52:07;;;;;;;;;;;;;;;;;;5135854;27;1058;-67
2023/07/05 05:54:33;;;;;;;;;;;;;;;;;;5135394;27;872;-67
2023/07/05 05:56:58;;;;;;;;;;;;;;;;;;5135826;27;861;-67
2023/07/05 05:59:23;;;;;;;;;;;;;;;;;;5118016;27;976;-68
2023/07/05 06:01:50;;;;;;;;;;;;;;;;;;5135977;27;932;-68
2023/07/05 06:04:15;;;;;;;;;;;;;;;;;;5135535;27;1972;-68
2023/07/05 06:06:41;;;;;;;;;;;;;;;;;;5135495;27;948;-68
2023/07/05 06:09:06;;;;;;;;;;;;;;;;;;5134225;27;904;-68
2023/07/05 06:11:31;;;;;;;;;;;;;;;;;;5135063;27;1055;-68
2023/07/05 06:13:56;;;;;;;;;;;;;;;;;;5135504;27;1143;-68
2023/07/05 06:16:22;;;;;;;;;;;;;;;;;;5135425;27;779;-68
2023/07/05 06:18:47;;;;;;;;;;;;;;;;;;5135202;27;984;-68
2023/07/05 06:21:12;;;;;;;;;;;;;;;;;;5116467;27;1953;-68
2023/07/05 06:23:37;;;;;;;;;;;;;;;;;;5133576;27;1979;-68
2023/07/05 06:26:03;;;;;;;;;;;;;;;;;;5132953;27;991;-68
2023/07/05 06:28:28;;;;;;;;;;;;;;;;;;5132976;27;920;-67
2023/07/05 06:30:53;;;;;;;;;;;;;;;;;;5132606;27;857;-68
2023/07/05 06:33:19;;;;;;;;;;;;;;;;;;5133025;27;920;-67
2023/07/05 06:35:47;;;;;;;;;;;;;;;;;;5132824;27;1086;-68
2023/07/05 06:38:13;;;;;;;;;;;;;;;;;;5114307;27;846;-68
2023/07/05 06:40:38;;;;;;;;;;;;;;;;;;5134365;27;928;-67
2023/07/05 06:43:04;;;;;;;;;;;;;;;;;;5134255;27;1970;-67
2023/07/05 06:45:30;;;;;;;;;;;;;;;;;;5134445;27;1165;-67
2023/07/05 06:47:55;;;;;;;;;;;;;;;;;;5134758;27;865;-67
2023/07/05 06:50:20;;;;;;;;;;;;;;;;;;5116614;27;1031;-67
2023/07/05 06:52:45;;;;;;;;;;;;;;;;;;5134765;27;853;-67
2023/07/05 06:55:11;;;;;;;;;;;;;;;;;;5134615;27;892;-67
2023/07/05 06:57:36;;;;;;;;;;;;;;;;;;5135052;27;920;-67
2023/07/05 07:00:01;;;;;;;;;;;;;;;;;;5134605;27;1020;-67
2023/07/05 07:02:26;;;;;;;;;;;;;;;;;;5135087;27;1022;-67
2023/07/05 07:04:52;;;;;;;;;;;;;;;;;;5134532;27;1886;-68
2023/07/05 07:07:17;;;;;;;;;;;;;;;;;;5134873;27;865;-68
2023/07/05 07:09:42;;;;;;;;;;;;;;;;;;5133437;27;983;-67
2023/07/05 07:12:08;;;;;;;;;;;;;;;;;;5134416;27;956;-68
2023/07/05 07:14:34;;;;;;;;;;;;;;;;;;5134083;27;1110;-67
2023/07/05 07:16:59;;;;;;;;;;;;;;;;;;5133996;27;938;-68
2023/07/05 07:19:25;;;;;;;;;;;;;;;;;;5133253;27;952;-68
2023/07/05 07:21:50;;;;;;;;;;;;;;;;;;5115391;27;881;-67
2023/07/05 07:24:16;;;;;;;;;;;;;;;;;;5115466;27;1919;-67
2023/07/05 07:26:42;;;;;;;;;;;;;;;;;;5134007;27;821;-68
2023/07/05 07:29:08;;;;;;;;;;;;;;;;;;5134194;27;861;-67
2023/07/05 07:31:34;;;;;;;;;;;;;;;;;;5134311;27;846;-68
2023/07/05 07:34:04;;;;;;;;;;;;;;;;;;5134045;27;833;-68
2023/07/05 07:36:30;;;;;;;;;;;;;;;;;;5134043;27;912;-68
2023/07/05 07:38:56;;;;;;;;;;;;;;;;;;5134307;27;813;-67
2023/07/05 07:41:21;;;;;;;;;;;;;;;;;;5133625;27;1003;-68
2023/07/05 07:43:48;;;;;;;;;;;;;;;;;;5134014;27;1902;-69
2023/07/05 07:46:15;;;;;;;;;;;;;;;;;;5133858;27;857;-68
2023/07/05 07:48:41;;;;;;;;;;;;;;;;;;5133585;27;841;-68
2023/07/05 07:51:07;;;;;;;;;;;;;;;;;;5133231;27;1056;-68
2023/07/05 07:53:32;;;;;;;;;;;;;;;;;;5133305;27;829;-68
2023/07/05 07:55:58;;;;;;;;;;;;;;;;;;5114714;28;1058;-68
2023/07/05 07:58:23;;;;;;;;;;;;;;;;;;5133870;27;885;-68
2023/07/05 08:00:48;;;;;;;;;;;;;;;;;;5133869;27;936;-68
2023/07/05 08:03:14;;;;;;;;;;;;;;;;;;5134003;27;1960;-69
2023/07/05 08:05:39;;;;;;;;;;;;;;;;;;5133692;27;825;-67
2023/07/05 08:08:04;;;;;;;;;;;;;;;;;;5133370;27;923;-69
2023/07/05 08:10:30;;;;;;;;;;;;;;;;;;5133712;28;920;-69
2023/07/05 08:12:56;;;;;;;;;;;;;;;;;;5114560;28;1571;-68
2023/07/05 08:15:22;;;;;;;;;;;;;;;;;;5132824;28;1076;-68
2023/07/05 08:17:47;;;;;;;;;;;;;;;;;;5115144;28;913;-68
2023/07/05 08:20:13;;;;;;;;;;;;;;;;;;5133585;28;1073;-69
2023/07/05 08:22:38;;;;;;;;;;;;;;;;;;5133445;28;1069;-68
2023/07/05 08:25:03;;;;;;;;;;;;;;;;;;5115523;28;2414;-68
2023/07/05 08:27:29;;;;;;;;;;;;;;;;;;5134104;28;1112;-67
2023/07/05 08:29:54;;;;;;;;;;;;;;;;;;5133928;28;918;-68
2023/07/05 08:32:21;;;;;;;;;;;;;;;;;;5136626;27;869;-67
2023/07/05 08:34:46;;;;;;;;;;;;;;;;;;5118736;27;928;-68
2023/07/05 08:37:12;;;;;;;;;;;;;;;;;;5138232;27;1197;-68
2023/07/05 08:39:37;;;;;;;;;;;;;;;;;;5138045;27;904;-68
2023/07/05 08:42:29;;;;;;;;;;;;;;;;;;5138642;27;904;-68
2023/07/05 08:45:08;;;;;;;;;;;;;;;;;;5137940;27;1960;-68
2023/07/05 08:47:46;;;;;;;;;;;;;;;;;;5137238;27;1008;-68
2023/07/05 08:50:14;;;;;;;;;;;;;;;;;;5137037;27;830;-68
2023/07/05 08:52:44;;;;;;;;;;;;;;;;;;5137046;27;647;-68
2023/07/05 08:55:14;;;;;;;;;;;;;;;;;;5136394;27;906;-68
2023/07/05 08:57:39;;;;;;;;;;;;;;;;;;5136893;27;853;-68
2023/07/05 09:00:11;;;;;;;;;;;;;;;;;;5136892;27;950;-68
2023/07/05 09:02:37;;;;;;;;;;;;;;;;;;5136670;27;926;-68
2023/07/05 09:05:04;;;;;;;;;;;;;;;;;;5136977;27;1922;-69
2023/07/05 09:07:54;;;;;;;;;;;;;;;;;;5137326;27;892;-68
2023/07/05 09:10:38;;;;;;;;;;;;;;;;;;5136357;27;964;-68
2023/07/05 09:13:20;;;;;;;;;;;;;;;;;;5135946;27;888;-68
2023/07/05 09:15:51;;;;;;;;;;;;;;;;;;5136931;27;1322;-67
2023/07/05 09:18:17;;;;;;;;;;;;;;;;;;5137082;27;889;-67
2023/07/05 09:20:53;;;;;;;;;;;;;;;;;;5137277;27;964;-67
2023/07/05 09:23:24;;;;;;;;;;;;;;;;;;5137290;27;1910;-68
2023/07/05 09:25:53;;;;;;;;;;;;;;;;;;5136631;27;901;-67
2023/07/05 09:28:30;;;;;;;;;;;;;;;;;;5137018;27;850;-67
2023/07/05 09:30:58;;;;;;;;;;;;;;;;;;5136148;27;829;-68
2023/07/05 09:33:30;;;;;;;;;;;;;;;;;;5136968;27;928;-68
2023/07/05 09:35:55;;;;;;;;;;;;;;;;;;5136616;27;955;-67
2023/07/05 09:38:34;;;;;;;;;;;;;;;;;;5137326;27;998;-67
2023/07/05 09:41:04;;;;;;;;;;;;;;;;;;5136426;27;997;-67
2023/07/05 09:43:31;;;;;;;;;;;;;;;;;;5135684;27;1893;-67
2023/07/05 09:45:59;;;;;;;;;;;;;;;;;;5136632;27;959;-67
2023/07/05 09:48:25;;;;;;;;;;;;;;;;;;5136785;27;909;-67
2023/07/05 09:50:51;;;;;;;;;;;;;;;;;;5117862;27;1707;-68
2023/07/05 09:53:35;;;;;;;;;;;;;;;;;;5136635;27;813;-70
2023/07/05 09:56:05;;;;;;;;;;;;;;;;;;5117880;27;1338;-68
2023/07/05 09:58:31;;;;;;;;;;;;;;;;;;5136872;27;908;-68
2023/07/05 10:01:04;;;;;;;;;;;;;;;;;;5136591;27;844;-68
2023/07/05 10:03:37;;;;;;;;;;;;;;;;;;5135824;27;1890;-67
2023/07/05 10:06:08;;;;;;;;;;;;;;;;;;5135611;27;912;-68
2023/07/05 10:08:44;;;;;;;;;;;;;;;;;;5118368;27;830;-67
2023/07/05 10:11:19;;;;;;;;;;;;;;;;;;5135984;27;837;-67
2023/07/05 10:13:45;;;;;;;;;;;;;;;;;;5135120;27;1063;-67
2023/07/05 10:16:10;;;;;;;;;;;;;;;;;;5135044;27;907;-68
2023/07/05 10:18:37;;;;;;;;;;;;;;;;;;5133565;27;924;-67
2023/07/05 10:21:15;;;;;;;;;;;;;;;;;;5133727;27;983;-67
2023/07/05 10:23:40;;;;;;;;;;;;;;;;;;5135059;27;1890;-68
2023/07/05 10:26:06;;;;;;;;;;;;;;;;;;5134171;27;921;-68
2023/07/05 10:28:33;;;;;;;;;;;;;;;;;;5116565;27;1494;-67
2023/07/05 10:31:05;;;;;;;;;;;;;;;;;;5134322;27;1235;-67
2023/07/05 10:33:32;;;;;;;;;;;;;;;;;;5135706;27;1194;-68
2023/07/05 10:36:02;;;;;;;;;;;;;;;;;;5127548;27;1289;-67
2023/07/05 10:38:29;;;;;;;;;;;;;;;;;;5113112;28;1134;-67
2023/07/05 10:40:56;;;;;;;;;;;;;;;;;;5126924;27;1234;-67
2023/07/05 10:43:22;;;;;;;;;;;;;;;;;;5135565;27;1905;-68
2023/07/05 10:45:48;;;;;;;;;;;;;;;;;;5135393;27;902;-68
2023/07/05 10:48:22;;;;;;;;;;;;;;;;;;5134815;27;1147;-68
2023/07/05 10:50:48;;;;;;;;;;;;;;;;;;5134035;27;821;-68
2023/07/05 10:53:15;;;;;;;;;;;;;;;;;;5135069;27;881;-67
2023/07/05 10:55:45;;;;;;;;;;;;;;;;;;5135238;27;923;-68
2023/07/05 10:58:13;;;;;;;;;;;;;;;;;;5134346;27;837;-68
2023/07/05 11:00:41;;;;;;;;;;;;;;;;;;5134478;27;815;-68
2023/07/05 11:03:11;;;;;;;;;;;;;;;;;;5133260;27;1920;-67
2023/07/05 11:05:36;;;;;;;;;;;;;;;;;;5115723;27;1139;-68
2023/07/05 11:08:02;;;;;;;;;;;;;;;;;;5133465;27;1003;-68
2023/07/05 11:10:28;;;;;;;;;;;;;;;;;;5134121;27;865;-68
2023/07/05 11:12:54;;;;;;;;;;;;;;;;;;5114994;27;754;-68
2023/07/05 11:15:21;;;;;;;;;;;;;;;;;;5120657;27;1266;-68
2023/07/05 11:17:47;;;;;;;;;;;;;;;;;;5113036;28;889;-68
2023/07/05 11:20:31;;;;;;;;;;;;;;;;;;5112900;28;821;-68
2023/07/05 11:22:56;;;;;;;;;;;;;;;;;;5095173;28;931;-68
2023/07/05 11:25:42;;;;;;;;;;;;;;;;;;5112671;28;1918;-68
2023/07/05 11:28:29;;;;;;;;;;;;;;;;;;5112027;28;1337;-68
2023/07/05 11:30:55;;;;;;;;;;;;;;;;;;5112669;28;944;-68
2023/07/05 11:33:22;;;;;;;;;;;;;;;;;;5112331;28;818;-68
2023/07/05 11:35:48;;;;;;;;;;;;;;;;;;5094907;28;905;-69
2023/07/05 11:38:31;;;;;;;;;;;;;;;;;;5112491;28;948;-69
2023/07/05 11:40:58;;;;;;;;;;;;;;;;;;5112491;28;822;-68
2023/07/05 11:43:25;;;;;;;;;;;;;;;;;;5112389;28;1878;-69
2023/07/05 11:45:50;;;;;;;;;;;;;;;;;;5112642;28;855;-69
2023/07/05 11:48:54;;;;;;;;;;;;;;;;;;5112979;28;901;-71
2023/07/05 11:51:24;;;;;;;;;;;;;;;;;;5029760;28;1326;-69
2023/07/05 11:53:52;;;;;;;;;;;;;;;;;;5029477;28;873;-69
2023/07/05 11:56:19;;;;;;;;;;;;;;;;;;5071601;28;1100;-68
2023/07/05 11:58:47;;;;;;;;;;;;;;;;;;5113090;28;862;-70
2023/07/05 12:01:15;;;;;;;;;;;;;;;;;;5112186;28;905;-69
2023/07/05 12:03:58;;;;;;;;;;;;;;;;;;5094394;28;1952;-68
2023/07/05 12:06:27;;;;;;;;;;;;;;;;;;5093792;28;1191;-69
2023/07/05 12:08:55;;;;;;;;;;;;;;;;;;5094533;28;1252;-67
2023/07/05 12:11:46;;;;;;;;;;;;;;;;;;5112902;28;1079;-68
2023/07/05 12:14:13;;;;;;;;;;;;;;;;;;5112658;28;1494;-66
2023/07/05 12:16:38;;;;;;;;;;;;;;;;;;5133501;28;1099;-67
2023/07/05 12:19:10;;;;;;;;;;;;;;;;;;5133458;28;940;-69
2023/07/05 12:21:35;;;;;;;;;;;;;;;;;;5133959;28;1003;-68
2023/07/05 12:24:04;;;;;;;;;;;;;;;;;;5133593;28;1960;-68
2023/07/05 12:26:31;;;;;;;;;;;;;;;;;;5114773;28;1184;-68
2023/07/05 12:28:58;;;;;;;;;;;;;;;;;;5133085;28;866;-68
2023/07/05 12:31:25;;;;;;;;;;;;;;;;;;5133611;28;809;-67
2023/07/05 12:33:51;;;;;;;;;;;;;;;;;;5132739;28;925;-67
2023/07/05 12:36:18;;;;;;;;;;;;;;;;;;5132997;28;842;-68
2023/07/05 12:38:44;;;;;;;;;;;;;;;;;;5114604;28;1163;-67
2023/07/05 12:41:14;;;;;;;;;;;;;;;;;;5132710;28;1019;-67
2023/07/05 12:43:40;;;;;;;;;;;;;;;;;;5132379;28;1960;-67
2023/07/05 12:46:05;;;;;;;;;;;;;;;;;;5133099;28;972;-71
2023/07/05 12:48:33;;;;;;;;;;;;;;;;;;5133710;28;897;-70
2023/07/05 12:51:10;;;;;;;;;;;;;;;;;;5114510;28;1206;-72
2023/07/05 12:53:36;;;;;;;;;;;;;;;;;;5133391;28;1071;-69
2023/07/05 12:56:04;;;;;;;;;;;;;;;;;;5132451;28;931;-71
2023/07/05 12:58:30;;;;;;;;;;;;;;;;;;5115379;28;1395;-67
2023/07/05 13:00:56;;;;;;;;;;;;;;;;;;5132836;28;995;-68
2023/07/05 13:03:23;;;;;;;;;;;;;;;;;;5132838;28;1891;-67
2023/07/05 13:05:48;;;;;;;;;;;;;;;;;;5132793;28;908;-68
2023/07/05 13:08:14;;;;;;;;;;;;;;;;;;5114314;28;691;-69
2023/07/05 13:10:40;;;;;;;;;;;;;;;;;;5132373;28;917;-65
2023/07/05 13:13:19;;;;;;;;;;;;;;;;;;5132292;28;853;-66
2023/07/05 13:15:44;;;;;;;;;;;;;;;;;;5132135;28;1056;-67
2023/07/05 13:18:27;;;;;;;;;;;;;;;;;;5134687;27;832;-68
2023/07/05 13:21:08;;;;;;;;;;;;;;;;;;5118069;27;1166;-68
2023/07/05 13:23:33;;;;;;;;;;;;;;;;;;5117829;27;1972;-74
2023/07/05 13:25:58;;;;;;;;;;;;;;;;;;5136181;27;869;-67
2023/07/05 13:28:25;;;;;;;;;;;;;;;;;;5135573;27;971;-68
2023/07/05 13:30:51;;;;;;;;;;;;;;;;;;5135529;27;942;-69
2023/07/05 13:33:16;;;;;;;;;;;;;;;;;;5134994;27;933;-69
2023/07/05 13:35:41;;;;;;;;;;;;;;;;;;5136052;27;1177;-69
2023/07/05 13:38:07;;;;;;;;;;;;;;;;;;5135400;27;870;-69
2023/07/05 13:40:32;;;;;;;;;;;;;;;;;;5135552;27;912;-69
2023/07/05 13:43:00;;;;;;;;;;;;;;;;;;5135990;27;896;-68
2023/07/05 13:45:30;;;;;;;;;;;;;;;;;;5136303;27;1897;-68
2023/07/05 13:47:55;;;;;;;;;;;;;;;;;;5136801;27;881;-70
2023/07/05 13:50:27;;;;;;;;;;;;;;;;;;5135768;27;924;-71
2023/07/05 13:52:53;;;;;;;;;;;;;;;;;;5136668;27;845;-71
2023/07/05 13:55:21;;;;;;;;;;;;;;;;;;5136374;27;798;-69
2023/07/05 13:57:53;;;;;;;;;;;;;;;;;;5136079;27;928;-69
2023/07/05 14:00:18;;;;;;;;;;;;;;;;;;5135725;27;849;-68
2023/07/05 14:02:45;;;;;;;;;;;;;;;;;;5136486;27;919;-67
2023/07/05 14:05:11;;;;;;;;;;;;;;;;;;5135579;27;1902;-68
2023/07/05 14:07:36;;;;;;;;;;;;;;;;;;5135618;27;928;-70
2023/07/05 14:10:02;;;;;;;;;;;;;;;;;;5135768;27;1002;-68
2023/07/05 14:12:30;;;;;;;;;;;;;;;;;;5135485;27;889;-68
2023/07/05 14:14:55;;;;;;;;;;;;;;;;;;5135692;27;1138;-69
2023/07/05 14:17:21;;;;;;;;;;;;;;;;;;5116476;27;999;-70
2023/07/05 14:19:47;;;;;;;;;;;;;;;;;;5135375;27;1132;-69
2023/07/05 14:22:17;;;;;;;;;;;;;;;;;;5136366;27;885;-69
2023/07/05 14:24:45;;;;;;;;;;;;;;;;;;5136353;27;1910;-70
2023/07/05 14:27:23;;;;;;;;;;;;;;;;;;5119631;27;1303;-70
2023/07/05 14:29:53;;;;;;;;;;;;;;;;;;5118556;27;1730;-67
2023/07/05 14:32:18;;;;;;;;;;;;;;;;;;5120843;27;1205;-70
2023/07/05 14:34:44;;;;;;;;;;;;;;;;;;5139837;27;947;-72
2023/07/05 14:37:10;;;;;;;;;;;;;;;;;;5141947;27;801;-70
2023/07/05 14:39:35;;;;;;;;;;;;;;;;;;5142874;27;1031;-69
2023/07/05 14:42:02;;;;;;;;;;;;;;;;;;5136334;27;877;-68
2023/07/05 14:44:27;;;;;;;;;;;;;;;;;;5136099;27;1965;-69
2023/07/05 14:46:53;;;;;;;;;;;;;;;;;;5117314;27;869;-70
2023/07/05 14:49:18;;;;;;;;;;;;;;;;;;5134858;27;905;-68
2023/07/05 14:51:44;;;;;;;;;;;;;;;;;;5135308;27;873;-69
2023/07/05 14:54:09;;;;;;;;;;;;;;;;;;5134193;27;897;-70
2023/07/05 14:56:36;;;;;;;;;;;;;;;;;;5134153;27;921;-69
2023/07/05 14:59:02;;;;;;;;;;;;;;;;;;5134935;27;953;-72
2023/07/05 15:01:27;;;;;;;;;;;;;;;;;;5134422;27;842;-69
2023/07/05 15:03:53;;;;;;;;;;;;;;;;;;5134466;27;1971;-69
2023/07/05 15:06:18;;;;;;;;;;;;;;;;;;5133584;27;861;-69
2023/07/05 15:08:44;;;;;;;;;;;;;;;;;;5134655;27;876;-69
2023/07/05 15:11:11;;;;;;;;;;;;;;;;;;5115431;27;1594;-67
2023/07/05 15:13:42;;;;;;;;;;;;;;;;;;5134857;27;958;-68
2023/07/05 15:16:07;;;;;;;;;;;;;;;;;;5134314;27;1178;-68
2023/07/05 15:18:32;;;;;;;;;;;;;;;;;;5134917;27;1226;-70
2023/07/05 15:21:04;;;;;;;;;;;;;;;;;;5121278;27;1238;-70
2023/07/05 15:23:30;;;;;;;;;;;;;;;;;;5118458;27;1913;-69
2023/07/05 15:25:55;;;;;;;;;;;;;;;;;;5129463;27;1246;-71
2023/07/05 15:28:21;;;;;;;;;;;;;;;;;;5134163;27;1218;-72
2023/07/05 15:30:47;;;;;;;;;;;;;;;;;;5135146;27;912;-72
2023/07/05 15:33:12;;;;;;;;;;;;;;;;;;5134549;27;1261;-71
2023/07/05 15:35:40;;;;;;;;;;;;;;;;;;5134821;27;980;-70
2023/07/05 15:38:05;;;;;;;;;;;;;;;;;;5135317;27;833;-70
2023/07/05 15:40:30;;;;;;;;;;;;;;;;;;5098784;28;2212;-70
2023/07/05 15:42:56;;;;;;;;;;;;;;;;;;5116190;27;1598;-71
2023/07/05 15:45:25;;;;;;;;;;;;;;;;;;5134611;27;1886;-72
2023/07/05 15:47:53;;;;;;;;;;;;;;;;;;5134926;27;889;-69
2023/07/05 15:50:19;;;;;;;;;;;;;;;;;;5115926;27;1298;-70
2023/07/05 15:52:45;;;;;;;;;;;;;;;;;;5116464;27;865;-68
2023/07/05 15:55:11;;;;;;;;;;;;;;;;;;5134030;27;943;-68
2023/07/05 15:57:36;;;;;;;;;;;;;;;;;;5133770;27;826;-70
2023/07/05 16:00:04;;;;;;;;;;;;;;;;;;5134796;27;908;-69
2023/07/05 16:02:40;;;;;;;;;;;;;;;;;;5134460;27;903;-69
2023/07/05 16:05:06;;;;;;;;;;;;;;;;;;5134452;27;1980;-72
2023/07/05 16:07:31;;;;;;;;;;;;;;;;;;5134254;27;857;-69
2023/07/05 16:09:57;;;;;;;;;;;;;;;;;;5135952;27;994;-73
2023/07/05 16:12:23;;;;;;;;;;;;;;;;;;5116872;28;1199;-76
2023/07/05 16:14:48;;;;;;;;;;;;;;;;;;5135387;28;1145;-76
2023/07/05 16:17:14;;;;;;;;;;;;;;;;;;5134527;28;881;-74
2023/07/05 16:19:39;;;;;;;;;;;;;;;;;;5136006;28;1030;-76
2023/07/05 16:22:04;;;;;;;;;;;;;;;;;;5116175;28;1288;-76
2023/07/05 16:24:30;;;;;;;;;;;;;;;;;;5134196;28;1913;-69
2023/07/05 16:26:55;;;;;;;;;;;;;;;;;;5134606;28;853;-68
2023/07/05 16:29:21;;;;;;;;;;;;;;;;;;5115052;28;1370;-68
2023/07/05 16:31:49;;;;;;;;;;;;;;;;;;5133359;28;884;-68
2023/07/05 16:34:14;;;;;;;;;;;;;;;;;;5132350;28;920;-68
2023/07/05 16:36:40;;;;;;;;;;;;;;;;;;5133182;28;908;-68
2023/07/05 16:39:06;;;;;;;;;;;;;;;;;;5115674;28;901;-69
2023/07/05 16:41:31;;;;;;;;;;;;;;;;;;5098486;28;1362;-69
2023/07/05 16:43:58;;;;;;;;;;;;;;;;;;5133403;28;1910;-69
2023/07/05 16:46:24;;;;;;;;;;;;;;;;;;5115272;28;872;-70
2023/07/05 16:48:49;;;;;;;;;;;;;;;;;;5114968;28;858;-65
2023/07/05 16:51:17;;;;;;;;;;;;;;;;;;5133552;27;877;-68
2023/07/05 16:53:42;;;;;;;;;;;;;;;;;;5137549;27;897;-67
2023/07/05 16:56:14;;;;;;;;;;;;;;;;;;5137536;27;878;-69
2023/07/05 16:58:47;;;;;;;;;;;;;;;;;;5137682;27;897;-70
2023/07/05 17:01:13;;;;;;;;;;;;;;;;;;5135740;27;1315;-67
2023/07/05 17:03:42;;;;;;;;;;;;;;;;;;5137247;27;1921;-67
2023/07/05 17:06:09;;;;;;;;;;;;;;;;;;5136660;27;952;-69
2023/07/05 17:08:38;;;;;;;;;;;;;;;;;;5137633;27;854;-68
2023/07/05 17:11:05;;;;;;;;;;;;;;;;;;5135774;27;944;-67
2023/07/05 17:13:30;;;;;;;;;;;;;;;;;;5135799;27;865;-67
2023/07/05 17:16:00;;;;;;;;;;;;;;;;;;5135481;27;1253;-66